createdAt,value
2022-10-14T00:00:22.881Z,4.87
2022-10-14T00:02:49.940Z,4.87
2022-10-14T00:05:16.349Z,4.88
2022-10-14T00:07:43.471Z,4.87
2022-10-14T00:10:09.894Z,4.88
2022-10-14T00:12:36.256Z,4.87
2022-10-14T00:15:02.705Z,4.91
2022-10-14T00:17:29.104Z,4.94
2022-10-14T00:19:55.507Z,4.94
2022-10-14T00:22:21.882Z,4.97
2022-10-14T00:24:48.260Z,4.97
2022-10-14T00:27:14.670Z,4.97
2022-10-14T00:29:41.092Z,4.97
2022-10-14T00:32:07.492Z,4.92
2022-10-14T00:34:34.231Z,4.91
2022-10-14T00:37:00.589Z,4.91
2022-10-14T00:39:27.135Z,4.93
2022-10-14T00:41:54.662Z,4.91
2022-10-14T00:44:21.005Z,4.93
2022-10-14T00:46:48.451Z,4.94
2022-10-14T00:49:14.797Z,4.94
2022-10-14T00:51:43.106Z,4.95
2022-10-14T00:54:10.199Z,4.97
2022-10-14T00:56:36.778Z,5.02
2022-10-14T00:59:04.259Z,5.05
2022-10-14T01:01:31.232Z,5.07
2022-10-14T01:03:57.593Z,5.09
2022-10-14T01:06:27.147Z,5.10
2022-10-14T01:08:53.511Z,5.11
2022-10-14T01:12:00.168Z,5.13
2022-10-14T01:14:49.295Z,5.16
2022-10-14T01:17:18.735Z,5.18
2022-10-14T01:20:03.909Z,5.20
2022-10-14T01:22:35.225Z,5.21
2022-10-14T01:25:20.499Z,5.16
2022-10-14T01:27:49.938Z,5.07
2022-10-14T01:30:18.531Z,5.07
2022-10-14T01:32:59.972Z,5.07
2022-10-14T01:35:36.381Z,5.10
2022-10-14T01:38:12.210Z,5.05
2022-10-14T01:40:55.133Z,5.03
2022-10-14T01:43:23.023Z,5.08
2022-10-14T01:45:50.706Z,5.12
2022-10-14T01:48:18.584Z,5.17
2022-10-14T01:50:47.137Z,5.19
2022-10-14T01:53:20.211Z,5.15
2022-10-14T01:55:47.338Z,5.12
2022-10-14T01:58:15.716Z,5.03
2022-10-14T02:00:42.118Z,5.00
2022-10-14T02:03:09.226Z,4.98
2022-10-14T02:05:44.899Z,5.00
2022-10-14T02:08:23.453Z,5.02
2022-10-14T02:11:05.352Z,4.97
2022-10-14T02:13:34.492Z,5.00
2022-10-14T02:16:00.858Z,5.06
2022-10-14T02:18:30.354Z,5.12
2022-10-14T02:21:05.768Z,5.16
2022-10-14T02:23:36.641Z,5.08
2022-10-14T02:26:04.008Z,5.09
2022-10-14T02:28:32.560Z,5.06
2022-10-14T02:31:07.703Z,5.04
2022-10-14T02:33:37.046Z,5.05
2022-10-14T02:36:05.727Z,5.09
2022-10-14T02:38:33.145Z,5.08
2022-10-14T02:41:01.554Z,5.13
2022-10-14T02:43:28.021Z,5.18
2022-10-14T02:45:57.807Z,5.13
2022-10-14T02:48:24.216Z,4.99
2022-10-14T02:50:50.598Z,5.06
2022-10-14T02:53:17.209Z,5.12
2022-10-14T02:55:43.595Z,5.17
2022-10-14T02:58:09.988Z,5.15
2022-10-14T03:00:36.381Z,5.13
2022-10-14T03:03:02.794Z,5.12
2022-10-14T03:05:29.268Z,5.09
2022-10-14T03:07:55.641Z,5.10
2022-10-14T03:10:22.083Z,5.10
2022-10-14T03:12:48.566Z,5.09
2022-10-14T03:15:14.967Z,5.11
2022-10-14T03:17:41.322Z,5.09
2022-10-14T03:20:08.013Z,5.11
2022-10-14T03:22:34.513Z,5.10
2022-10-14T03:25:01.028Z,5.14
2022-10-14T03:27:27.474Z,5.11
2022-10-14T03:29:53.913Z,5.10
2022-10-14T03:32:20.590Z,5.09
2022-10-14T03:34:47.086Z,5.10
2022-10-14T03:37:13.550Z,5.11
2022-10-14T03:39:39.914Z,5.08
2022-10-14T03:42:06.323Z,4.97
2022-10-14T03:44:32.711Z,4.88
2022-10-14T03:46:59.173Z,4.79
2022-10-14T03:49:25.563Z,4.77
2022-10-14T03:51:51.926Z,4.81
2022-10-14T03:54:18.351Z,4.90
2022-10-14T03:56:44.833Z,4.95
2022-10-14T03:59:11.266Z,4.95
2022-10-14T04:01:37.718Z,4.99
2022-10-14T04:04:04.113Z,5.01
2022-10-14T04:06:31.492Z,5.04
2022-10-14T04:08:57.978Z,5.07
2022-10-14T04:11:24.401Z,5.06
2022-10-14T04:13:50.755Z,4.98
2022-10-14T04:16:17.146Z,4.97
2022-10-14T04:18:43.526Z,4.97
2022-10-14T04:21:11.672Z,4.88
2022-10-14T04:23:38.389Z,4.85
2022-10-14T04:26:05.770Z,4.75
2022-10-14T04:28:32.532Z,4.72
2022-10-14T04:30:59.014Z,4.76
2022-10-14T04:33:25.476Z,4.82
2022-10-14T04:35:57.170Z,4.87
2022-10-14T04:38:23.616Z,4.90
2022-10-14T04:40:50.015Z,4.97
2022-10-14T04:43:16.380Z,5.01
2022-10-14T04:45:42.801Z,5.00
2022-10-14T04:48:09.208Z,4.99
2022-10-14T04:50:35.718Z,5.02
2022-10-14T04:53:02.350Z,5.08
2022-10-14T04:55:28.755Z,5.15
2022-10-14T04:57:55.122Z,5.22
2022-10-14T05:00:21.752Z,5.28
2022-10-14T05:02:48.162Z,5.32
2022-10-14T05:05:17.471Z,5.33
2022-10-14T05:07:43.929Z,5.38
2022-10-14T05:10:10.358Z,5.34
2022-10-14T05:12:37.177Z,5.27
2022-10-14T05:15:05.340Z,5.23
2022-10-14T05:17:32.613Z,5.17
2022-10-14T05:19:59.010Z,5.18
2022-10-14T05:22:25.424Z,5.08
2022-10-14T05:24:51.844Z,5.04
2022-10-14T05:27:18.372Z,5.09
2022-10-14T05:29:44.813Z,5.13
2022-10-14T05:32:11.610Z,5.18
2022-10-14T05:34:37.966Z,5.20
2022-10-14T05:37:04.409Z,5.19
2022-10-14T05:39:30.864Z,5.24
2022-10-14T05:41:57.257Z,5.29
2022-10-14T05:44:23.675Z,5.29
2022-10-14T05:46:50.171Z,5.32
2022-10-14T05:49:16.570Z,5.28
2022-10-14T05:51:42.998Z,5.28
2022-10-14T05:54:09.580Z,5.32
2022-10-14T05:56:35.952Z,5.26
2022-10-14T05:59:02.304Z,5.32
2022-10-14T06:01:28.748Z,5.33
2022-10-14T06:03:55.185Z,5.38
2022-10-14T06:06:25.282Z,5.37
2022-10-14T06:08:54.905Z,5.27
2022-10-14T06:11:21.262Z,5.27
2022-10-14T06:13:47.675Z,5.30
2022-10-14T06:16:14.116Z,5.22
2022-10-14T06:18:40.694Z,5.18
2022-10-14T06:21:07.690Z,5.22
2022-10-14T06:23:34.504Z,5.14
2022-10-14T06:26:03.684Z,5.18
2022-10-14T06:28:30.349Z,5.25
2022-10-14T06:30:56.744Z,5.34
2022-10-14T06:33:23.179Z,5.44
2022-10-14T06:35:49.564Z,5.51
2022-10-14T06:38:16.100Z,5.57
2022-10-14T06:40:42.478Z,5.58
2022-10-14T06:43:09.038Z,5.59
2022-10-14T06:45:35.402Z,5.60
2022-10-14T06:48:01.984Z,5.63
2022-10-14T06:50:28.359Z,5.62
2022-10-14T06:52:54.740Z,5.54
2022-10-14T06:55:21.115Z,5.61
2022-10-14T06:57:47.496Z,5.69
2022-10-14T07:00:14.052Z,5.62
2022-10-14T07:02:40.572Z,5.65
2022-10-14T07:05:07.054Z,5.64
2022-10-14T07:07:33.508Z,5.69
2022-10-14T07:10:00.004Z,5.75
2022-10-14T07:12:26.949Z,5.79
2022-10-14T07:14:53.456Z,5.78
2022-10-14T07:17:20.242Z,5.67
2022-10-14T07:19:46.791Z,5.64
2022-10-14T07:22:13.167Z,5.72
2022-10-14T07:24:39.520Z,5.77
2022-10-14T07:27:09.067Z,5.79
2022-10-14T07:29:35.451Z,5.86
2022-10-14T07:32:01.862Z,5.94
2022-10-14T07:34:28.363Z,5.95
2022-10-14T07:36:54.787Z,6.04
2022-10-14T07:39:21.165Z,6.14
2022-10-14T07:41:48.417Z,6.23
2022-10-14T07:44:16.770Z,6.28
2022-10-14T07:46:44.546Z,6.27
2022-10-14T07:49:15.637Z,6.26
2022-10-14T07:51:42.137Z,6.23
2022-10-14T07:54:09.969Z,6.25
2022-10-14T07:56:40.297Z,6.29
2022-10-14T07:59:06.732Z,6.39
2022-10-14T08:01:33.222Z,6.46
2022-10-14T08:03:59.666Z,6.54
2022-10-14T08:06:26.568Z,6.61
2022-10-14T08:08:53.072Z,6.67
2022-10-14T08:11:24.614Z,6.77
2022-10-14T08:13:51.674Z,6.83
2022-10-14T08:16:23.460Z,6.88
2022-10-14T08:18:50.327Z,6.92
2022-10-14T08:21:17.448Z,6.94
2022-10-14T08:23:43.877Z,6.98
2022-10-14T08:26:30.972Z,7.02
2022-10-14T08:29:01.366Z,7.07
2022-10-14T08:31:27.801Z,7.17
2022-10-14T08:33:54.219Z,7.23
2022-10-14T08:36:21.077Z,7.30
2022-10-14T08:38:48.278Z,7.32
2022-10-14T08:41:14.944Z,7.42
2022-10-14T08:43:47.424Z,7.47
2022-10-14T08:46:20.260Z,7.52
2022-10-14T08:48:47.913Z,7.58
2022-10-14T08:51:16.234Z,7.68
2022-10-14T08:53:48.696Z,7.78
2022-10-14T08:56:15.094Z,7.84
2022-10-14T08:58:43.513Z,7.91
2022-10-14T09:01:22.059Z,8.02
2022-10-14T09:03:48.566Z,8.11
2022-10-14T09:06:32.281Z,8.21
2022-10-14T09:09:17.438Z,8.32
2022-10-14T09:11:45.233Z,8.48
2022-10-14T09:14:18.143Z,8.61
2022-10-14T09:16:50.375Z,8.78
2022-10-14T09:19:31.679Z,8.88
2022-10-14T09:21:58.984Z,9.02
2022-10-14T09:24:26.951Z,9.17
2022-10-14T09:27:13.850Z,9.30
2022-10-14T09:29:47.067Z,9.47
2022-10-14T09:32:20.745Z,9.63
2022-10-14T09:34:52.277Z,9.76
2022-10-14T09:37:29.036Z,9.88
2022-10-14T09:40:10.074Z,9.98
2022-10-14T09:42:42.496Z,10.09
2022-10-14T09:45:11.109Z,10.20
2022-10-14T09:47:42.108Z,10.33
2022-10-14T09:50:10.134Z,10.45
2022-10-14T09:52:38.875Z,10.55
2022-10-14T09:55:08.790Z,10.70
2022-10-14T09:57:35.268Z,10.81
2022-10-14T10:00:04.258Z,10.93
2022-10-14T10:02:42.344Z,11.07
2022-10-14T10:05:28.780Z,11.16
2022-10-14T10:08:04.354Z,11.31
2022-10-14T10:10:31.080Z,11.49
2022-10-14T10:12:58.009Z,11.61
2022-10-14T10:15:24.476Z,11.77
2022-10-14T10:17:51.057Z,11.92
2022-10-14T10:20:19.500Z,11.96
2022-10-14T10:22:46.331Z,11.99
2022-10-14T10:25:12.826Z,12.15
2022-10-14T10:27:39.735Z,12.27
2022-10-14T10:30:18.782Z,12.40
2022-10-14T10:32:49.488Z,12.57
2022-10-14T10:35:15.956Z,12.75
2022-10-14T10:37:51.543Z,12.90
2022-10-14T10:40:18.482Z,13.11
2022-10-14T10:42:55.156Z,13.30
2022-10-14T10:45:36.438Z,13.49
2022-10-14T10:48:21.578Z,13.68
2022-10-14T10:50:48.015Z,13.85
2022-10-14T10:53:24.789Z,13.99
2022-10-14T10:56:04.328Z,14.09
2022-10-14T10:58:55.167Z,14.14
2022-10-14T11:01:40.448Z,14.20
2022-10-14T11:04:20.865Z,14.28
2022-10-14T11:07:09.212Z,14.34
2022-10-14T11:10:00.213Z,14.40
2022-10-14T11:12:45.181Z,14.46
2022-10-14T11:18:00.239Z,14.66
2022-10-14T11:20:42.304Z,14.76
2022-10-14T11:23:23.755Z,14.88
2022-10-14T11:25:56.317Z,15.02
2022-10-14T11:28:49.027Z,15.11
2022-10-14T11:31:26.848Z,15.23
2022-10-14T11:34:02.252Z,15.26
2022-10-14T11:36:45.138Z,15.27
2022-10-14T11:39:21.668Z,15.34
2022-10-14T11:41:57.142Z,15.40
2022-10-14T11:44:42.695Z,15.46
2022-10-14T11:47:29.469Z,15.54
2022-10-14T11:50:15.055Z,15.63
2022-10-14T11:52:45.695Z,15.72
2022-10-14T11:55:16.216Z,15.80
2022-10-14T11:57:45.477Z,15.89
2022-10-14T12:00:12.015Z,15.95
2022-10-14T12:02:57.064Z,15.96
2022-10-14T12:05:42.088Z,15.95
2022-10-14T12:08:14.632Z,15.91
2022-10-14T12:10:52.500Z,15.88
2022-10-14T12:13:22.330Z,15.82
2022-10-14T12:15:50.380Z,15.66
2022-10-14T12:18:16.804Z,15.57
2022-10-14T12:20:57.334Z,15.43
2022-10-14T12:23:33.334Z,15.41
2022-10-14T12:26:02.840Z,15.44
2022-10-14T12:28:29.457Z,15.45
2022-10-14T12:31:15.947Z,15.43
2022-10-14T12:34:01.102Z,15.44
2022-10-14T12:36:31.406Z,15.46
2022-10-14T12:39:16.472Z,15.47
2022-10-14T12:41:50.911Z,15.54
2022-10-14T12:44:19.246Z,15.59
2022-10-14T12:46:46.865Z,15.62
2022-10-14T12:49:42.371Z,15.59
2022-10-14T12:52:08.945Z,15.53
2022-10-14T12:54:37.092Z,15.53
2022-10-14T12:57:15.866Z,15.48
2022-10-14T12:59:42.280Z,15.47
2022-10-14T13:02:27.499Z,15.41
2022-10-14T13:04:54.943Z,15.33
2022-10-14T13:07:42.905Z,15.25
2022-10-14T13:10:32.595Z,15.12
2022-10-14T13:13:00.521Z,15.13
2022-10-14T13:15:37.985Z,15.15
2022-10-14T13:18:24.627Z,15.12
2022-10-14T13:20:51.724Z,15.06
2022-10-14T13:23:30.147Z,15.08
2022-10-14T13:26:12.121Z,15.06
2022-10-14T13:28:42.527Z,15.08
2022-10-14T13:31:13.082Z,15.11
2022-10-14T13:33:49.226Z,15.11
2022-10-14T13:36:33.377Z,15.11
2022-10-14T13:39:01.142Z,15.10
2022-10-14T13:41:31.512Z,15.06
2022-10-14T13:43:59.704Z,15.00
2022-10-14T13:46:35.357Z,15.01
2022-10-14T13:49:04.103Z,14.99
2022-10-14T13:51:49.377Z,14.96
2022-10-14T13:54:16.110Z,14.93
2022-10-14T13:56:43.008Z,14.92
2022-10-14T13:59:44.419Z,14.80
2022-10-14T14:02:20.957Z,14.76
2022-10-14T14:04:52.144Z,14.68
2022-10-14T14:07:59.063Z,14.66
2022-10-14T14:10:09.820Z,14.62
2022-10-14T14:12:36.435Z,14.61
2022-10-14T14:15:03.859Z,14.62
2022-10-14T14:17:35.842Z,14.62
2022-10-14T14:20:02.203Z,14.65
2022-10-14T14:22:30.143Z,14.64
2022-10-14T14:28:02.923Z,14.46
2022-10-14T14:30:29.286Z,14.43
2022-10-14T14:32:57.792Z,14.46
2022-10-14T14:35:24.491Z,14.45
2022-10-14T14:37:56.183Z,14.45
2022-10-14T14:40:27.550Z,14.44
2022-10-14T14:42:55.426Z,14.43
2022-10-14T14:45:25.511Z,14.40
2022-10-14T14:47:53.714Z,14.39
2022-10-14T14:50:42.955Z,14.35
2022-10-14T14:53:23.899Z,14.31
2022-10-14T14:55:56.093Z,14.27
2022-10-14T14:58:42.821Z,14.20
2022-10-14T15:01:16.746Z,14.12
2022-10-14T15:04:12.341Z,14.03
2022-10-14T15:06:37.465Z,13.96
2022-10-14T15:09:12.302Z,13.92
2022-10-14T15:12:07.871Z,13.88
2022-10-14T15:14:45.317Z,13.81
2022-10-14T15:17:30.470Z,13.72
2022-10-14T15:19:57.843Z,13.66
2022-10-14T15:22:29.609Z,13.61
2022-10-14T15:25:01.225Z,13.58
2022-10-14T15:27:31.663Z,13.53
2022-10-14T15:30:16.606Z,13.48
2022-10-14T15:32:43.253Z,13.44
2022-10-14T15:35:12.565Z,13.42
2022-10-14T15:37:39.082Z,13.37
2022-10-14T15:40:10.543Z,13.33
2022-10-14T15:42:37.003Z,13.30
2022-10-14T15:45:03.938Z,13.27
2022-10-14T15:47:30.670Z,13.25
2022-10-14T15:49:57.116Z,13.25
2022-10-14T15:52:26.140Z,13.24
2022-10-14T15:54:53.834Z,13.24
2022-10-14T15:57:20.250Z,13.22
2022-10-14T15:59:46.684Z,13.19
2022-10-14T16:02:32.088Z,13.18
2022-10-14T16:07:45.542Z,13.15
2022-10-14T16:10:14.389Z,13.12
2022-10-14T16:12:40.926Z,13.08
2022-10-14T16:15:30.436Z,13.08
2022-10-14T16:17:56.844Z,13.05
2022-10-14T16:20:23.574Z,13.03
2022-10-14T16:22:50.011Z,13.01
2022-10-14T16:25:20.183Z,12.97
2022-10-14T16:27:46.594Z,12.93
2022-10-14T16:30:13.032Z,12.92
2022-10-14T16:32:39.461Z,12.89
2022-10-14T16:35:06.754Z,12.84
2022-10-14T16:37:33.128Z,12.82
2022-10-14T16:39:59.502Z,12.79
2022-10-14T16:42:25.883Z,12.76
2022-10-14T16:44:52.380Z,12.75
2022-10-14T16:47:20.373Z,12.77
2022-10-14T16:49:48.115Z,12.71
2022-10-14T16:52:14.651Z,12.65
2022-10-14T16:54:41.091Z,12.59
2022-10-14T16:57:08.009Z,12.55
2022-10-14T16:59:34.418Z,12.52
2022-10-14T17:02:00.946Z,12.48
2022-10-14T17:04:27.615Z,12.44
2022-10-14T17:06:54.389Z,12.37
2022-10-14T17:09:20.917Z,12.33
2022-10-14T17:11:47.393Z,12.30
2022-10-14T17:14:15.196Z,12.27
2022-10-14T17:16:42.312Z,12.26
2022-10-14T17:19:08.690Z,12.27
2022-10-14T17:21:35.069Z,12.26
2022-10-14T17:24:01.964Z,12.26
2022-10-14T17:26:31.910Z,12.24
2022-10-14T17:28:58.598Z,12.23
2022-10-14T17:31:25.520Z,12.22
2022-10-14T17:33:52.122Z,12.18
2022-10-14T17:36:18.486Z,12.17
2022-10-14T17:38:47.140Z,12.18
2022-10-14T17:41:14.109Z,12.13
2022-10-14T17:43:40.546Z,12.10
2022-10-14T17:48:42.301Z,12.08
2022-10-14T17:51:12.397Z,12.06
2022-10-14T17:53:39.486Z,12.08
2022-10-14T17:56:07.083Z,12.05
2022-10-14T17:58:33.441Z,12.02
2022-10-14T18:01:06.889Z,12.01
2022-10-14T18:03:34.079Z,12.01
2022-10-14T18:06:17.252Z,11.99
2022-10-14T18:08:44.521Z,11.97
2022-10-14T18:11:11.456Z,11.99
2022-10-14T18:13:37.996Z,11.98
2022-10-14T18:16:05.389Z,11.95
2022-10-14T18:18:31.850Z,11.92
2022-10-14T18:21:00.592Z,11.92
2022-10-14T18:23:32.029Z,11.92
2022-10-14T18:26:08.240Z,11.89
2022-10-14T18:28:38.782Z,11.89
2022-10-14T18:31:08.917Z,11.87
2022-10-14T18:33:36.651Z,11.88
2022-10-14T18:36:04.029Z,11.87
2022-10-14T18:38:30.438Z,11.86
2022-10-14T18:43:29.835Z,11.85
2022-10-14T18:46:06.763Z,11.83
2022-10-14T18:48:34.469Z,11.82
2022-10-14T18:51:01.726Z,11.76
2022-10-14T18:53:29.628Z,11.76
2022-10-14T18:55:58.153Z,11.74
2022-10-14T18:58:27.289Z,11.75
2022-10-14T19:00:53.873Z,11.74
2022-10-14T19:03:20.296Z,11.73
2022-10-14T19:05:47.241Z,11.70
2022-10-14T19:10:40.981Z,11.67
2022-10-14T19:13:09.084Z,11.66
2022-10-14T19:15:46.905Z,11.65
2022-10-14T19:18:16.470Z,11.64
2022-10-14T19:20:45.351Z,11.61
2022-10-14T19:23:11.716Z,11.61
2022-10-14T19:25:38.159Z,11.60
2022-10-14T19:28:04.672Z,11.61
2022-10-14T19:30:31.047Z,11.61
2022-10-14T19:32:57.447Z,11.59
2022-10-14T19:35:23.862Z,11.57
2022-10-14T19:37:50.224Z,11.55
2022-10-14T19:40:19.815Z,11.52
2022-10-14T19:42:49.256Z,11.52
2022-10-14T19:45:15.673Z,11.52
2022-10-14T19:47:42.081Z,11.53
2022-10-14T19:50:08.723Z,11.49
2022-10-14T19:52:35.153Z,11.49
2022-10-14T19:55:01.820Z,11.48
2022-10-14T19:57:28.273Z,11.46
2022-10-14T19:59:54.670Z,11.46
2022-10-14T20:02:21.098Z,11.43
2022-10-14T20:04:47.494Z,11.43
2022-10-14T20:07:14.075Z,11.41
2022-10-14T20:09:40.555Z,11.41
2022-10-14T20:12:07.177Z,11.43
2022-10-14T20:14:33.557Z,11.43
2022-10-14T20:17:01.708Z,11.42
2022-10-14T20:19:28.079Z,11.40
2022-10-14T20:21:54.560Z,11.39
2022-10-14T20:24:20.998Z,11.38
2022-10-14T20:26:47.359Z,11.37
2022-10-14T20:29:13.779Z,11.33
2022-10-14T20:31:40.140Z,11.29
2022-10-14T20:34:10.238Z,11.29
2022-10-14T20:36:37.554Z,11.30
2022-10-14T20:39:03.961Z,11.30
2022-10-14T20:41:30.331Z,11.31
2022-10-14T20:43:57.271Z,11.30
2022-10-14T20:46:24.878Z,11.30
2022-10-14T20:48:55.583Z,11.25
2022-10-14T20:51:22.852Z,11.26
2022-10-14T20:53:49.393Z,11.24
2022-10-14T20:56:15.817Z,11.25
2022-10-14T20:58:42.226Z,11.24
2022-10-14T21:01:09.964Z,11.23
2022-10-14T21:03:36.490Z,11.22
2022-10-14T21:06:04.360Z,11.20
2022-10-14T21:08:30.817Z,11.16
2022-10-14T21:11:01.186Z,11.15
2022-10-14T21:13:28.443Z,11.13
2022-10-14T21:15:55.349Z,11.08
2022-10-14T21:18:22.447Z,11.08
2022-10-14T21:20:48.994Z,11.03
2022-10-14T21:23:15.451Z,11.02
2022-10-14T21:25:42.382Z,11.03
2022-10-14T21:28:08.796Z,11.03
2022-10-14T21:30:35.188Z,11.04
2022-10-14T21:33:01.832Z,11.03
2022-10-14T21:35:28.232Z,10.99
2022-10-14T21:37:54.626Z,10.99
2022-10-14T21:40:21.124Z,11.01
2022-10-14T21:42:47.563Z,11.02
2022-10-14T21:45:14.282Z,11.01
2022-10-14T21:47:40.678Z,10.99
2022-10-14T21:50:07.359Z,10.98
2022-10-14T21:52:34.733Z,10.98
2022-10-14T21:55:01.095Z,10.99
2022-10-14T21:57:27.470Z,11.01
2022-10-14T21:59:53.831Z,10.99
2022-10-14T22:02:20.379Z,10.95
2022-10-14T22:04:46.746Z,10.92
2022-10-14T22:07:13.203Z,10.90
2022-10-14T22:09:39.594Z,10.88
2022-10-14T22:12:06.400Z,10.85
2022-10-14T22:14:32.772Z,10.82
2022-10-14T22:16:59.134Z,10.82
2022-10-14T22:19:25.559Z,10.81
2022-10-14T22:21:51.974Z,10.75
2022-10-14T22:24:18.386Z,10.75
2022-10-14T22:26:44.781Z,10.74
2022-10-14T22:29:15.202Z,10.72
2022-10-14T22:31:41.638Z,10.70
2022-10-14T22:34:08.543Z,10.68
2022-10-14T22:36:35.373Z,10.66
2022-10-14T22:39:03.063Z,10.67
2022-10-14T22:41:34.983Z,10.68
2022-10-14T22:44:02.075Z,10.68
2022-10-14T22:46:29.784Z,10.66
2022-10-14T22:48:57.017Z,10.66
2022-10-14T22:51:24.873Z,10.64
2022-10-14T22:53:51.477Z,10.60
2022-10-14T22:56:22.067Z,10.57
2022-10-14T22:58:52.268Z,10.49
2022-10-14T23:01:18.744Z,10.42
2022-10-14T23:03:45.179Z,10.37
2022-10-14T23:06:12.162Z,10.31
2022-10-14T23:08:38.958Z,10.26
2022-10-14T23:11:05.413Z,10.23
2022-10-14T23:13:32.035Z,10.19
2022-10-14T23:16:03.294Z,10.13
2022-10-14T23:18:30.554Z,10.08
2022-10-14T23:20:57.156Z,10.03
2022-10-14T23:23:23.680Z,9.96
2022-10-14T23:25:50.065Z,9.89
2022-10-14T23:28:16.506Z,9.84
2022-10-14T23:30:42.959Z,9.78
2022-10-14T23:33:10.932Z,9.71
2022-10-14T23:35:38.611Z,9.63
2022-10-14T23:38:05.201Z,9.57
2022-10-14T23:40:31.613Z,9.52
2022-10-14T23:42:58.358Z,9.50
2022-10-14T23:45:24.839Z,9.52
2022-10-14T23:47:51.234Z,9.50
2022-10-14T23:50:17.912Z,9.44
2022-10-14T23:52:45.889Z,9.39
2022-10-14T23:55:12.699Z,9.30
2022-10-14T23:57:40.120Z,9.28
